createdAt,value
2019-04-06T00:03:44.104Z,28.10
2019-04-06T00:08:43.804Z,30.17
2019-04-06T00:13:43.470Z,31.03
2019-04-06T00:18:43.446Z,31.50
2019-04-06T00:23:43.091Z,33.20
2019-04-06T00:28:42.768Z,33.83
2019-04-06T00:33:42.538Z,33.57
2019-04-06T00:38:42.201Z,31.73
2019-04-06T00:43:42.134Z,30.10
2019-04-06T00:48:41.867Z,27.77
2019-04-06T00:53:41.517Z,30.27
2019-04-06T00:58:41.174Z,30.10
2019-04-06T01:03:40.826Z,29.67
2019-04-06T01:08:40.466Z,31.90
2019-04-06T01:13:40.118Z,32.60
2019-04-06T01:18:40.860Z,26.30
2019-04-06T01:23:40.530Z,26.50
2019-04-06T01:28:40.208Z,29.20
2019-04-06T01:33:39.852Z,28.87
2019-04-06T01:38:39.578Z,30.80
2019-04-06T01:43:39.501Z,26.03
2019-04-06T01:48:39.181Z,29.40
2019-04-06T01:53:38.813Z,30.90
2019-04-06T01:58:38.459Z,31.77
2019-04-06T02:03:38.117Z,27.37
2019-04-06T02:08:37.750Z,30.97
2019-04-06T02:13:38.686Z,31.17
2019-04-06T02:18:38.432Z,34.60
2019-04-06T02:23:38.095Z,31.90
2019-04-06T02:28:38.107Z,30.50
2019-04-06T02:34:08.891Z,34.10
2019-04-06T02:39:21.419Z,31.00
2019-04-06T02:44:21.307Z,32.37
2019-04-06T02:49:20.984Z,34.60
2019-04-06T02:54:20.658Z,35.17
2019-04-06T02:59:20.390Z,31.47
2019-04-06T03:04:20.063Z,32.07
2019-04-06T03:09:19.921Z,27.43
2019-04-06T03:14:19.736Z,29.20
2019-04-06T03:19:19.466Z,31.93
2019-04-06T03:24:19.447Z,32.30
2019-04-06T03:29:19.432Z,32.80
2019-04-06T03:34:21.266Z,31.00
2019-04-06T03:39:20.678Z,27.30
2019-04-06T03:44:20.367Z,29.17
2019-04-06T03:49:20.023Z,32.60
2019-04-06T03:54:19.726Z,34.77
2019-04-06T03:59:19.930Z,32.63
2019-04-06T04:04:19.988Z,31.70
2019-04-06T04:09:19.716Z,28.90
2019-04-06T04:14:19.543Z,25.37
2019-04-06T04:19:19.773Z,26.57
2019-04-06T04:24:19.483Z,27.03
2019-04-06T04:29:19.128Z,25.13
2019-04-06T04:34:18.815Z,28.33
2019-04-06T04:39:18.472Z,25.20
2019-04-06T04:44:18.200Z,26.00
2019-04-06T04:49:17.890Z,21.97
2019-04-06T04:54:17.911Z,25.30
2019-04-06T04:59:17.835Z,30.00
2019-04-06T05:04:17.511Z,26.30
2019-04-06T05:09:17.246Z,27.53
2019-04-06T05:14:53.002Z,25.77
2019-04-06T05:19:52.645Z,28.80
2019-04-06T05:24:52.438Z,30.17
2019-04-06T05:29:52.418Z,31.13
2019-04-06T05:34:52.090Z,27.80
2019-04-06T05:39:51.752Z,29.20
2019-04-06T05:44:51.680Z,31.53
2019-04-06T05:49:51.354Z,33.50
2019-04-06T05:54:50.994Z,33.30
2019-04-06T05:59:50.643Z,37.83
2019-04-06T06:04:50.314Z,37.87
2019-04-06T06:09:50.087Z,38.00
2019-04-06T06:14:49.710Z,41.33
2019-04-06T06:19:49.486Z,42.07
2019-04-06T06:24:49.319Z,42.17
2019-04-06T06:29:49.348Z,37.43
2019-04-06T06:34:48.998Z,36.80
2019-04-06T06:39:48.659Z,45.07
2019-04-06T06:44:48.565Z,44.00
2019-04-06T06:49:48.238Z,40.20
2019-04-06T06:54:48.537Z,42.93
2019-04-06T06:59:48.311Z,43.67
2019-04-06T07:04:48.156Z,45.37
2019-04-06T07:09:47.866Z,46.43
2019-04-06T07:14:47.627Z,51.47
2019-04-06T07:19:47.354Z,49.83
2019-04-06T07:24:48.331Z,53.17
2019-04-06T07:29:48.749Z,49.50
2019-04-06T07:34:48.382Z,54.83
2019-04-06T07:40:08.064Z,46.83
2019-04-06T07:45:10.288Z,49.77
2019-04-06T07:50:10.234Z,47.13
2019-04-06T07:55:10.234Z,45.77
2019-04-06T08:00:10.134Z,39.97
2019-04-06T08:05:09.858Z,46.10
2019-04-06T08:10:09.777Z,48.27
2019-04-06T08:15:10.050Z,46.10
2019-04-06T08:20:10.049Z,46.67
2019-04-06T08:25:10.162Z,42.17
2019-04-06T08:30:11.318Z,42.13
2019-04-06T08:35:12.204Z,34.37
2019-04-06T08:40:12.315Z,32.90
2019-04-06T08:45:14.134Z,41.27
2019-04-06T08:50:14.108Z,40.27
2019-04-06T08:55:13.902Z,40.90
2019-04-06T09:00:13.915Z,40.50
2019-04-06T09:05:14.031Z,38.47
2019-04-06T09:10:14.129Z,38.60
2019-04-06T09:15:16.838Z,35.53
2019-04-06T09:20:16.547Z,37.10
2019-04-06T09:25:16.351Z,36.27
2019-04-06T09:30:16.070Z,36.50
2019-04-06T09:35:15.723Z,39.87
2019-04-06T09:40:15.713Z,35.03
2019-04-06T09:45:50.193Z,33.80
2019-04-06T09:51:11.293Z,37.30
2019-04-06T09:56:23.247Z,34.83
2019-04-06T10:01:45.067Z,28.37
2019-04-06T10:06:59.263Z,36.50
2019-04-06T10:12:12.699Z,21.50
2019-04-06T10:17:21.335Z,34.27
2019-04-06T10:22:36.154Z,29.37
2019-04-06T10:27:46.302Z,32.87
2019-04-06T10:32:55.746Z,22.20
2019-04-06T10:38:13.556Z,23.27
2019-04-06T10:43:35.281Z,23.50
2019-04-06T10:48:41.934Z,28.20
2019-04-06T10:54:00.542Z,25.10
2019-04-06T10:59:21.711Z,24.87
2019-04-06T11:04:34.467Z,24.00
2019-04-06T11:09:52.901Z,18.93
2019-04-06T11:15:12.568Z,24.90
2019-04-06T11:20:27.918Z,31.53
2019-04-06T11:25:49.499Z,29.67
2019-04-06T11:31:07.145Z,30.77
2019-04-06T11:36:23.969Z,31.17
2019-04-06T11:41:43.414Z,29.73
2019-04-06T11:46:53.772Z,26.30
2019-04-06T11:52:24.450Z,22.97
2019-04-06T11:57:37.078Z,19.80
2019-04-06T12:03:04.979Z,19.53
2019-04-06T12:08:36.055Z,22.63
2019-04-06T12:13:45.814Z,22.70
2019-04-06T12:18:57.206Z,18.70
2019-04-06T12:24:08.359Z,23.03
2019-04-06T12:29:36.172Z,22.10
2019-04-06T12:35:13.070Z,18.50
2019-04-06T12:40:35.442Z,17.27
2019-04-06T12:45:57.600Z,19.53
2019-04-06T12:51:19.428Z,19.80
2019-04-06T12:56:37.220Z,20.30
2019-04-06T13:01:52.058Z,17.10
2019-04-06T13:07:09.935Z,17.83
2019-04-06T13:12:19.385Z,20.60
2019-04-06T13:17:41.296Z,20.90
2019-04-06T13:22:54.278Z,19.23
2019-04-06T13:28:03.217Z,16.50
2019-04-06T13:33:27.916Z,19.00
2019-04-06T13:38:36.158Z,18.00
2019-04-06T13:43:44.707Z,17.83
2019-04-06T13:49:05.464Z,15.70
2019-04-06T13:54:27.917Z,19.20
2019-04-06T13:59:34.670Z,16.60
2019-04-06T14:04:56.433Z,16.73
2019-04-06T14:10:17.999Z,15.13
2019-04-06T14:15:27.469Z,13.83
2019-04-06T14:20:46.223Z,14.93
2019-04-06T14:26:03.709Z,15.87
2019-04-06T14:31:27.235Z,14.47
2019-04-06T14:36:39.539Z,14.33
2019-04-06T14:41:58.098Z,12.87
2019-04-06T14:47:06.210Z,12.53
2019-04-06T14:52:21.739Z,13.03
2019-04-06T14:57:33.603Z,13.77
2019-04-06T15:03:10.744Z,15.30
2019-04-06T15:08:38.522Z,13.70
2019-04-06T15:13:57.745Z,14.63
2019-04-06T15:19:10.492Z,16.13
2019-04-06T15:24:24.124Z,13.97
2019-04-06T15:29:52.194Z,14.10
2019-04-06T15:35:12.051Z,15.27
2019-04-06T15:40:42.966Z,14.60
2019-04-06T15:46:20.003Z,15.80
2019-04-06T15:51:34.209Z,14.27
2019-04-06T15:56:41.104Z,14.20
2019-04-06T16:02:00.290Z,14.63
2019-04-06T16:07:01.339Z,13.97
2019-04-06T16:12:20.545Z,15.80
2019-04-06T16:17:32.463Z,13.23
2019-04-06T16:22:49.743Z,14.00
2019-04-06T16:28:01.396Z,13.03
2019-04-06T16:33:10.604Z,12.33
2019-04-06T16:38:29.187Z,12.37
2019-04-06T16:43:51.339Z,13.20
2019-04-06T16:49:16.268Z,15.33
2019-04-06T16:54:35.251Z,15.87
2019-04-06T16:59:45.463Z,15.70
2019-04-06T17:05:03.682Z,16.50
2019-04-06T17:10:11.940Z,16.63
2019-04-06T17:15:37.870Z,15.90
2019-04-06T17:20:55.311Z,14.53
2019-04-06T17:26:13.148Z,13.70
2019-04-06T17:31:25.382Z,12.40
2019-04-06T17:36:32.537Z,12.93
2019-04-06T17:41:42.918Z,12.60
2019-04-06T17:47:10.838Z,12.00
2019-04-06T17:52:27.830Z,10.77
2019-04-06T17:57:43.519Z,14.23
2019-04-06T18:02:52.791Z,14.13
2019-04-06T18:08:12.073Z,13.83
2019-04-06T18:13:18.424Z,13.60
2019-04-06T18:18:18.386Z,11.87
2019-04-06T18:23:18.742Z,11.07
2019-04-06T18:28:18.496Z,10.77
2019-04-06T18:33:21.523Z,11.07
2019-04-06T18:38:26.266Z,10.50
2019-04-06T18:43:26.320Z,9.67
2019-04-06T18:48:26.001Z,9.63
2019-04-06T18:53:25.727Z,11.40
2019-04-06T18:58:25.365Z,10.83
2019-04-06T19:03:25.445Z,10.80
2019-04-06T19:08:25.183Z,11.63
2019-04-06T19:13:25.993Z,11.87
2019-04-06T19:18:25.754Z,13.67
2019-04-06T19:23:25.406Z,12.03
2019-04-06T19:28:25.058Z,12.23
2019-04-06T19:33:25.975Z,13.90
2019-04-06T19:38:26.138Z,13.90
2019-04-06T19:43:26.722Z,14.07
2019-04-06T19:48:26.845Z,14.47
2019-04-06T19:53:26.671Z,14.20
2019-04-06T19:58:26.351Z,15.97
2019-04-06T20:03:34.617Z,15.80
2019-04-06T20:08:28.500Z,15.60
2019-04-06T20:13:29.454Z,17.00
2019-04-06T20:18:29.316Z,16.57
2019-04-06T20:23:29.862Z,17.33
2019-04-06T20:28:29.854Z,16.73
2019-04-06T20:33:29.814Z,17.77
2019-04-06T20:38:29.920Z,17.50
2019-04-06T20:43:31.242Z,18.80
2019-04-06T20:48:30.977Z,18.77
2019-04-06T20:53:30.714Z,17.37
2019-04-06T20:58:30.355Z,18.17
2019-04-06T21:03:30.780Z,19.17
2019-04-06T21:08:30.923Z,19.50
2019-04-06T21:13:30.662Z,20.47
2019-04-06T21:18:30.379Z,20.10
2019-04-06T21:23:30.678Z,21.23
2019-04-06T21:28:31.108Z,21.17
2019-04-06T21:33:30.875Z,18.70
2019-04-06T21:38:30.518Z,20.10
2019-04-06T21:43:31.089Z,22.07
2019-04-06T21:48:31.316Z,20.47
2019-04-06T21:53:31.341Z,24.80
2019-04-06T21:58:31.268Z,24.30
2019-04-06T22:03:31.405Z,24.30
2019-04-06T22:08:31.772Z,24.97
2019-04-06T22:13:31.824Z,24.47
2019-04-06T22:18:31.606Z,24.87
2019-04-06T22:23:41.214Z,27.37
2019-04-06T22:28:32.601Z,27.73
2019-04-06T22:33:33.127Z,28.33
2019-04-06T22:38:33.157Z,29.90
2019-04-06T22:43:33.434Z,29.33
2019-04-06T22:48:33.583Z,31.00
2019-04-06T22:53:33.395Z,30.50
2019-04-06T22:58:33.397Z,31.27
2019-04-06T23:04:00.493Z,32.30
2019-04-06T23:09:00.803Z,31.00
2019-04-06T23:14:00.910Z,30.50
2019-04-06T23:19:00.720Z,31.47
2019-04-06T23:24:03.068Z,30.80
2019-04-06T23:29:02.125Z,32.10
2019-04-06T23:34:02.143Z,32.63
2019-04-06T23:39:02.373Z,34.40
2019-04-06T23:44:04.142Z,35.43
2019-04-06T23:49:03.910Z,32.37
2019-04-06T23:54:04.257Z,31.93
2019-04-06T23:59:04.091Z,32.87
